East Albany, Vermont
Current Conditions -  °F | °C
As of 10:55 PM on Saturday 24 Jan 2015 (Local Time) from KEFK Reporting Station
Light Snow Light Snow  
Wind Chill: 20°   Ceiling: 1000
Heat Index: 26°   Visibility: 7mi
Dew Point: 23°   Wind: 6mph
Humidity: 87%   Direction: 290°WNW
Pressure: 29.25"   Gusts: NA
Location:  44.8143°N, 72.284°W
Report Text: KEFK 250355Z AUTO 29005KT 7SM -SN OVC010 M03/M05 A2925 RMK AO2 T10311050
Loading
Personal Weather Stations






























Interactive Weather Map New forecast layout! Learn more

10-Day Weather Forecast

Advertisements
Track Severe Weather on mobile